Time;durP1;ratioP1;P1;durP2;ratioP2;P2;SDS_P1;SDS_P2;PMS_P1;PMS_P2;Temp;Humidity;BMP_temperature;BMP_pressure;BME280_temperature;BME280_humidity;BME280_pressure;Samples;Min_cycle;Max_cycle;Signal;HPM_P1;HPM_P2
2021/11/09 00:08:11;;;;;;;9.25;5.25;;;22.80;63.20;;;;;;31392363;28;20201;-41
2021/11/09 00:23:13;;;;;;;4.97;4.30;;;22.90;62.70;;;;;;31390502;28;20053;-44
2021/11/09 00:38:15;;;;;;;7.57;4.45;;;23.30;62.50;;;;;;31388675;28;20068;-42
2021/11/09 00:53:18;;;;;;;5.88;4.03;;;23.40;62.50;;;;;;31387684;28;20052;-43
2021/11/09 01:08:20;;;;;;;5.32;3.70;;;23.40;62.20;;;;;;31385984;28;20052;-43
2021/11/09 01:23:24;;;;;;;5.38;3.80;;;23.30;61.90;;;;;;31384410;28;20053;-41
2021/11/09 01:38:26;;;;;;;5.00;3.50;;;23.30;61.90;;;;;;31382424;28;20049;-42
2021/11/09 01:53:29;;;;;;;4.55;3.40;;;23.20;61.90;;;;;;31379773;28;20041;-43
2021/11/09 02:08:32;;;;;;;5.45;3.50;;;23.00;62.20;;;;;;31378728;28;20055;-46
2021/11/09 02:23:35;;;;;;;4.70;3.25;;;23.00;62.10;;;;;;31376715;28;20875;-43
2021/11/09 02:38:37;;;;;;;61.50;42.20;;;22.90;62.00;;;;;;31374895;28;20053;-39
2021/11/09 02:53:44;;;;;;;29.05;21.02;;;22.60;58.70;;;;;;31373299;28;20052;-38
2021/11/09 03:08:52;;;;;;;25.13;15.60;;;22.80;60.30;;;;;;31372089;28;20046;-40
2021/11/09 03:54:20;;;;;;;22.75;17.05;;;22.90;59.80;;;;;;31369257;28;20048;-42
2021/11/09 04:09:33;;;;;;;14.95;10.68;;;22.90;60.20;;;;;;31367029;28;20589;-39
2021/11/09 04:25:05;;;;;;;9.13;7.47;;;23.00;60.60;;;;;;31389288;28;20064;-38
2021/11/09 05:10:52;;;;;;;5.95;1.90;;;23.10;61.50;;;;;;31383926;28;20166;-38
2021/11/09 05:25:54;;;;;;;8.38;5.00;;;23.00;62.10;;;;;;31382148;28;20064;-37
2021/11/09 05:41:00;;;;;;;7.88;2.83;;;22.80;60.30;;;;;;31381139;28;20221;-39
2021/11/09 05:56:04;;;;;;;3.42;2.15;;;23.00;61.70;;;;;;31379628;28;20049;-37
2021/11/09 06:11:06;;;;;;;3.45;1.27;;;23.40;61.50;;;;;;31378240;28;20069;-37
2021/11/09 06:26:08;;;;;;;7.85;3.53;;;23.40;61.80;;;;;;31401265;28;20052;-36
2021/11/09 06:41:10;;;;;;;36.72;22.73;;;23.40;60.40;;;;;;31381224;28;20073;-38
2021/11/09 06:56:12;;;;;;;51.72;33.75;;;23.00;58.80;;;;;;31372226;28;20049;-37
2021/11/09 07:11:14;;;;;;;37.45;29.38;;;22.90;58.70;;;;;;31370946;28;20097;-38
2021/11/09 07:26:17;;;;;;;24.45;20.02;;;22.80;57.50;;;;;;31316347;28;20191;-37
2021/11/09 07:41:20;;;;;;;51.97;37.28;;;22.70;56.20;;;;;;31369328;28;20510;-38
2021/11/09 07:56:23;;;;;;;38.03;27.95;;;22.60;55.10;;;;;;31416741;28;20057;-37
2021/11/09 08:11:26;;;;;;;19.70;15.50;;;22.60;55.80;;;;;;31391834;28;20056;-35
2021/11/09 08:26:28;;;;;;;17.10;13.57;;;23.00;56.10;;;;;;31395280;28;20125;-35
2021/11/09 08:41:54;;;;;;;14.65;12.23;;;23.40;56.40;;;;;;31397651;28;20109;-36
2021/11/09 08:57:07;;;;;;;11.65;6.95;;;23.30;56.60;;;;;;31386808;28;20046;-38
2021/11/09 09:12:09;;;;;;;5.80;4.47;;;23.40;57.00;;;;;;31385250;28;20072;-37
2021/11/09 09:57:36;;;;;;;5.95;5.20;;;23.10;58.40;;;;;;31378904;28;20048;-41
2021/11/09 10:12:44;;;;;;;20.73;16.38;;;23.00;58.40;;;;;;31398468;28;20049;-42
2021/11/09 10:27:49;;;;;;;15.82;11.23;;;22.80;56.50;;;;;;31377031;28;20050;-42
2021/11/09 10:42:54;;;;;;;9.43;6.68;;;22.60;52.00;;;;;;31373788;28;20045;-44
2021/11/09 11:13:23;;;;;;;7.75;3.65;;;22.10;51.10;;;;;;31381458;28;20053;-35
2021/11/09 11:28:25;;;;;;;4.35;2.58;;;22.30;51.40;;;;;;31370350;28;20125;-37
2021/11/09 11:43:43;;;;;;;75.85;55.20;;;22.50;51.00;;;;;;31369559;28;20099;-36
2021/11/09 11:58:45;;;;;;;24.45;17.65;;;22.50;50.60;;;;;;31371188;28;20080;-37
2021/11/09 12:13:57;;;;;;;128.45;83.53;;;22.70;50.80;;;;;;31367397;28;20053;-44
2021/11/09 12:28:59;;;;;;;37.15;28.15;;;22.20;50.40;;;;;;31366369;28;20047;-45
2021/11/09 12:44:07;;;;;;;29.80;18.95;;;22.70;50.90;;;;;;31456102;28;20075;-46
2021/11/09 12:59:19;;;;;;;16.37;11.83;;;22.70;51.10;;;;;;31384239;28;20041;-45
2021/11/09 13:14:29;;;;;;;28.02;13.65;;;22.90;51.90;;;;;;31032246;28;9999626;-41
2021/11/09 13:29:51;;;;;;;20.63;15.97;;;22.70;52.50;;;;;;31377313;28;20053;-37
2021/11/09 13:44:55;;;;;;;21.83;15.75;;;22.50;53.90;;;;;;31375267;28;20069;-39
2021/11/09 14:00:17;;;;;;;19.98;14.45;;;22.90;54.20;;;;;;31370900;28;20056;-39
2021/11/09 14:30:29;;;;;;;24.23;16.40;;;22.80;55.30;;;;;;31368696;28;20132;-41
2021/11/09 15:00:45;;;;;;;21.60;14.55;;;22.40;56.10;;;;;;31372077;28;20072;-37
2021/11/09 15:31:18;;;;;;;25.40;13.18;;;22.60;56.60;;;;;;31412828;28;20046;-39
2021/11/09 15:46:20;;;;;;;21.67;11.95;;;22.50;56.70;;;;;;31394264;28;20103;-39
2021/11/09 16:01:25;;;;;;;22.25;13.40;;;22.20;58.00;;;;;;31445768;28;20045;-36
2021/11/09 16:16:27;;;;;;;18.63;10.68;;;22.20;58.20;;;;;;31380163;28;20041;-37
2021/11/09 16:31:29;;;;;;;15.38;10.85;;;22.10;58.40;;;;;;31381547;28;20046;-38
2021/11/09 16:46:40;;;;;;;19.67;9.80;;;22.20;58.60;;;;;;31028276;28;10000407;-41
2021/11/09 18:33:47;;;;;;;13.30;7.32;;;22.10;59.20;;;;;;31446390;28;20083;-41
2021/11/09 18:48:56;;;;;;;11.15;7.13;;;22.50;59.20;;;;;;31500018;28;20056;-40
2021/11/09 19:03:58;;;;;;;15.18;7.47;;;22.60;59.00;;;;;;31485505;28;20049;-42
2021/11/09 19:19:00;;;;;;;8.48;5.78;;;22.50;59.10;;;;;;31496717;28;20044;-44
2021/11/09 19:34:02;;;;;;;8.52;6.15;;;22.50;59.20;;;;;;31497039;28;20048;-42
2021/11/09 19:49:06;;;;;;;10.80;6.18;;;22.50;59.10;;;;;;31514164;28;20068;-38
2021/11/09 20:04:09;;;;;;;7.18;6.25;;;22.50;59.30;;;;;;31525335;28;20136;-38
2021/11/09 20:19:14;;;;;;;11.07;6.50;;;22.40;59.40;;;;;;31523200;28;20068;-41
2021/11/09 20:34:16;;;;;;;7.82;6.05;;;22.40;59.50;;;;;;31521590;28;20052;-39
2021/11/09 20:49:19;;;;;;;7.38;5.65;;;22.40;59.60;;;;;;31513598;28;20107;-38
2021/11/09 21:04:21;;;;;;;5.82;5.20;;;22.40;59.90;;;;;;31510497;28;20052;-45
2021/11/09 21:19:24;;;;;;;8.32;4.95;;;22.40;59.90;;;;;;31510683;28;20064;-41
2021/11/09 21:49:46;;;;;;;;;;;22.30;60.00;;;;;;31471052;28;1226100;-45
2021/11/09 22:04:49;;;;;;;5.70;4.63;;;22.30;60.10;;;;;;31511820;28;19916;-42
2021/11/09 22:19:51;;;;;;;5.53;4.57;;;22.30;60.10;;;;;;31510516;28;20100;-44
2021/11/09 22:34:53;;;;;;;6.18;4.78;;;22.30;60.10;;;;;;31508762;28;20089;-41
2021/11/09 22:49:55;;;;;;;7.53;3.85;;;22.30;60.10;;;;;;31506690;28;20080;-41
2021/11/09 23:04:57;;;;;;;4.80;4.30;;;22.20;60.30;;;;;;31505562;28;20084;-45
2021/11/09 23:19:59;;;;;;;7.50;4.20;;;22.20;60.40;;;;;;31504014;28;20045;-44
2021/11/09 23:35:02;;;;;;;5.40;4.22;;;22.20;60.30;;;;;;31503597;28;20041;-41
2021/11/09 23:50:06;;;;;;;4.30;3.42;;;22.20;60.40;;;;;;31501188;28;20053;-38
